Time;durP1;ratioP1;P1;durP2;ratioP2;P2;SDS_P1;SDS_P2;PMS_P1;PMS_P2;Temp;Humidity;BMP_temperature;BMP_pressure;BME280_temperature;BME280_humidity;BME280_pressure;Samples;Min_cycle;Max_cycle;Signal;HPM_P1;HPM_P2
2020/12/26 00:01:39;;;;;;;11.00;7.30;;;5.50;40.00;;;;;;5031538;28;20703;-69
2020/12/26 00:04:04;;;;;;;8.53;6.40;;;5.60;40.10;;;;;;5031101;28;20197;-68
2020/12/26 00:06:30;;;;;;;10.20;6.97;;;5.70;39.30;;;;;;5031358;28;20527;-68
2020/12/26 00:08:56;;;;;;;8.07;7.37;;;5.70;39.80;;;;;;5031108;28;20212;-69
2020/12/26 00:11:22;;;;;;;8.50;7.27;;;5.60;39.40;;;;;;5031039;28;20256;-68
2020/12/26 00:13:49;;;;;;;7.37;6.40;;;5.50;40.10;;;;;;5031215;28;20219;-67
2020/12/26 00:16:15;;;;;;;8.00;7.20;;;5.30;40.90;;;;;;5031273;28;20659;-67
2020/12/26 00:18:42;;;;;;;8.27;6.80;;;5.30;41.10;;;;;;5030715;28;20447;-68
2020/12/26 00:21:10;;;;;;;8.77;6.43;;;5.00;40.90;;;;;;5031172;28;20404;-67
2020/12/26 00:23:35;;;;;;;11.10;6.83;;;5.00;41.60;;;;;;5030876;28;20473;-70
2020/12/26 00:26:02;;;;;;;8.93;6.20;;;4.90;41.90;;;;;;5030598;28;20823;-70
2020/12/26 00:28:28;;;;;;;6.70;6.10;;;4.90;41.90;;;;;;5030835;28;20230;-67
2020/12/26 00:30:54;;;;;;;10.33;7.27;;;4.90;41.90;;;;;;5031040;28;20415;-67
2020/12/26 00:33:19;;;;;;;7.37;6.43;;;4.70;42.30;;;;;;5030625;28;20431;-67
2020/12/26 00:35:45;;;;;;;8.10;7.30;;;4.70;42.50;;;;;;5031004;28;20992;-67
2020/12/26 00:38:10;;;;;;;9.27;7.87;;;4.80;42.40;;;;;;5030815;28;20670;-69
2020/12/26 00:40:36;;;;;;;9.67;7.70;;;4.80;42.10;;;;;;5030291;28;20195;-67
2020/12/26 00:43:01;;;;;;;8.30;7.43;;;4.60;42.80;;;;;;5031022;28;20193;-68
2020/12/26 00:45:27;;;;;;;8.07;6.67;;;5.00;42.60;;;;;;5030782;28;20244;-69
2020/12/26 00:47:52;;;;;;;8.53;7.70;;;5.10;41.90;;;;;;5030394;28;20736;-69
2020/12/26 00:50:18;;;;;;;8.00;7.30;;;5.10;42.80;;;;;;5030899;28;20206;-69
2020/12/26 00:52:43;;;;;;;8.20;7.40;;;5.40;41.80;;;;;;5030703;28;20188;-68
2020/12/26 00:55:09;;;;;;;8.43;7.50;;;5.50;41.20;;;;;;5030466;28;20219;-69
2020/12/26 00:57:35;;;;;;;7.80;7.00;;;5.50;40.80;;;;;;5030635;28;20533;-69
2020/12/26 01:00:04;;;;;;;7.73;7.03;;;5.60;40.30;;;;;;5030792;28;20181;-69
2020/12/26 01:02:29;;;;;;;9.97;7.80;;;5.60;40.30;;;;;;5030374;28;20418;-69
2020/12/26 01:04:55;;;;;;;8.63;6.37;;;5.70;39.90;;;;;;5030517;28;20436;-69
2020/12/26 01:07:20;;;;;;;9.83;7.63;;;5.50;40.30;;;;;;5030314;28;20601;-69
2020/12/26 01:09:46;;;;;;;8.90;7.87;;;5.40;40.80;;;;;;5030078;28;20169;-69
2020/12/26 01:12:11;;;;;;;15.30;6.83;;;5.30;40.50;;;;;;5030583;28;20180;-69
2020/12/26 01:14:37;;;;;;;9.07;6.73;;;5.00;41.70;;;;;;5030436;28;20311;-69
2020/12/26 01:17:02;;;;;;;8.43;7.63;;;5.10;41.90;;;;;;5029837;28;20173;-69
2020/12/26 01:19:28;;;;;;;11.13;7.87;;;5.10;41.20;;;;;;5030319;28;20181;-69
2020/12/26 01:21:54;;;;;;;9.20;8.30;;;5.30;40.70;;;;;;5030675;28;20265;-69
2020/12/26 01:24:21;;;;;;;9.63;8.70;;;5.50;40.20;;;;;;5029823;28;20298;-69
2020/12/26 01:26:50;;;;;;;8.73;7.43;;;5.40;40.20;;;;;;5030313;28;20801;-69
2020/12/26 01:29:17;;;;;;;8.60;7.73;;;5.60;40.30;;;;;;5030173;28;20819;-69
2020/12/26 01:31:47;;;;;;;9.30;7.67;;;5.60;39.30;;;;;;5030054;28;20412;-68
2020/12/26 01:34:13;;;;;;;9.03;7.63;;;5.80;39.10;;;;;;5030403;28;20439;-69
2020/12/26 01:36:38;;;;;;;8.63;7.77;;;5.60;39.00;;;;;;5030304;28;20407;-69
2020/12/26 01:39:04;;;;;;;7.20;6.60;;;5.70;39.00;;;;;;5029738;28;20638;-70
2020/12/26 01:41:29;;;;;;;8.17;7.37;;;5.60;39.00;;;;;;5030242;28;20179;-68
2020/12/26 01:44:00;;;;;;;8.17;7.47;;;5.40;40.40;;;;;;5030331;28;20208;-70
2020/12/26 01:46:28;;;;;;;9.10;7.87;;;5.40;39.60;;;;;;5029979;28;20196;-70
2020/12/26 01:48:55;;;;;;;8.90;8.00;;;5.30;39.60;;;;;;5030117;28;20413;-68
2020/12/26 01:51:23;;;;;;;10.43;6.87;;;5.20;40.90;;;;;;5030105;28;20421;-69
2020/12/26 01:53:49;;;;;;;9.27;7.60;;;5.30;40.50;;;;;;5029812;28;20430;-70
2020/12/26 01:56:15;;;;;;;8.37;7.50;;;5.40;40.30;;;;;;5030168;28;20750;-70
2020/12/26 01:58:44;;;;;;;7.90;7.20;;;5.20;40.30;;;;;;5033475;28;20415;-69
2020/12/26 02:01:13;;;;;;;8.37;7.23;;;5.20;40.50;;;;;;5033517;28;20777;-68
2020/12/26 02:03:42;;;;;;;10.50;7.17;;;5.10;40.80;;;;;;5033736;28;20436;-67
2020/12/26 02:06:08;;;;;;;9.37;8.00;;;4.50;42.30;;;;;;5033589;28;20461;-67
2020/12/26 02:08:35;;;;;;;8.80;7.90;;;4.30;43.30;;;;;;5033284;28;20769;-68
2020/12/26 02:11:04;;;;;;;10.30;6.90;;;4.70;43.20;;;;;;5033692;28;20412;-67
2020/12/26 02:13:30;;;;;;;11.27;7.50;;;5.00;42.10;;;;;;5033499;28;20432;-67
2020/12/26 02:16:08;;;;;;;8.70;7.17;;;5.20;41.40;;;;;;5033277;28;20406;-67
2020/12/26 02:18:35;;;;;;;10.70;7.97;;;5.00;41.50;;;;;;5033127;28;20186;-69
2020/12/26 02:21:02;;;;;;;9.37;7.70;;;4.90;42.20;;;;;;5033406;28;20415;-68
2020/12/26 02:23:27;;;;;;;10.80;8.30;;;5.30;41.20;;;;;;5032997;28;20481;-70
2020/12/26 02:25:57;;;;;;;15.00;8.17;;;5.50;40.60;;;;;;5033414;28;20407;-70
2020/12/26 02:28:24;;;;;;;10.33;7.77;;;5.60;40.00;;;;;;5033003;28;20260;-69
2020/12/26 02:30:52;;;;;;;10.03;8.17;;;5.10;40.20;;;;;;5032847;28;20453;-69
2020/12/26 02:33:18;;;;;;;11.83;9.03;;;4.70;42.00;;;;;;5033032;28;20454;-70
2020/12/26 02:35:48;;;;;;;13.40;8.97;;;5.00;41.60;;;;;;5033097;28;20404;-69
2020/12/26 02:38:15;;;;;;;10.47;8.37;;;5.40;40.80;;;;;;5032754;28;20462;-70
2020/12/26 02:40:40;;;;;;;11.60;8.60;;;5.30;40.40;;;;;;5033129;28;20488;-70
2020/12/26 02:43:27;;;;;;;12.90;9.23;;;5.40;40.60;;;;;;5033017;28;20570;-70
2020/12/26 02:45:54;;;;;;;9.83;8.27;;;5.00;41.40;;;;;;5032845;28;20180;-69
2020/12/26 02:48:19;;;;;;;9.20;8.20;;;5.10;42.00;;;;;;5032654;28;20460;-69
2020/12/26 02:50:45;;;;;;;9.87;8.83;;;4.80;41.70;;;;;;5033063;28;20960;-69
2020/12/26 02:53:11;;;;;;;10.90;9.27;;;5.10;42.50;;;;;;5032763;28;20194;-69
2020/12/26 02:55:36;;;;;;;11.37;8.73;;;5.20;41.40;;;;;;5032885;28;20693;-69
2020/12/26 02:58:02;;;;;;;13.33;8.90;;;5.10;41.50;;;;;;5032550;28;20173;-70
2020/12/26 03:00:28;;;;;;;10.27;9.20;;;5.10;41.60;;;;;;5032564;28;20898;-68
2020/12/26 03:02:54;;;;;;;12.27;9.63;;;4.90;42.30;;;;;;5032632;28;20419;-70
2020/12/26 03:05:19;;;;;;;17.07;8.93;;;4.80;42.50;;;;;;5032572;28;20693;-69
2020/12/26 03:07:45;;;;;;;10.60;8.10;;;4.50;43.30;;;;;;5031777;28;20733;-69
2020/12/26 03:10:11;;;;;;;10.50;9.40;;;4.30;44.50;;;;;;5031686;28;20165;-68
2020/12/26 03:12:36;;;;;;;10.70;8.40;;;4.30;44.50;;;;;;5032333;28;20169;-69
2020/12/26 03:15:03;;;;;;;12.10;8.90;;;4.30;44.30;;;;;;5032185;28;20215;-69
2020/12/26 03:17:29;;;;;;;12.83;9.57;;;4.40;44.20;;;;;;5032182;28;20188;-69
2020/12/26 03:19:54;;;;;;;10.77;8.10;;;4.60;43.70;;;;;;5032299;28;20411;-69
2020/12/26 03:22:20;;;;;;;13.30;8.60;;;4.50;44.50;;;;;;5031879;28;20193;-69
2020/12/26 03:24:45;;;;;;;9.67;8.00;;;4.50;43.60;;;;;;5032162;28;20199;-69
2020/12/26 03:27:11;;;;;;;9.97;8.80;;;4.30;44.00;;;;;;5031839;28;20678;-70
2020/12/26 03:29:36;;;;;;;9.43;7.30;;;4.40;44.00;;;;;;5032160;28;20181;-67
2020/12/26 03:32:02;;;;;;;9.77;8.73;;;4.40;44.10;;;;;;5032089;28;20252;-67
2020/12/26 03:34:28;;;;;;;10.63;8.53;;;4.60;43.40;;;;;;5031961;28;20224;-68
2020/12/26 03:36:54;;;;;;;9.03;8.13;;;4.60;43.10;;;;;;5031923;28;20476;-69
2020/12/26 03:39:19;;;;;;;13.27;8.23;;;4.70;43.10;;;;;;5032107;28;20181;-70
2020/12/26 03:41:45;;;;;;;10.00;8.60;;;4.80;42.20;;;;;;5032048;28;20191;-69
2020/12/26 03:44:10;;;;;;;10.00;8.97;;;5.10;42.00;;;;;;5031897;28;20200;-70
2020/12/26 03:46:36;;;;;;;11.20;8.93;;;4.90;41.80;;;;;;5032013;28;20601;-69
2020/12/26 03:49:02;;;;;;;12.73;8.60;;;4.90;42.10;;;;;;5031879;28;20203;-69
2020/12/26 03:51:27;;;;;;;11.77;7.93;;;4.80;41.80;;;;;;5031707;28;20315;-69
2020/12/26 03:53:53;;;;;;;10.67;7.30;;;4.60;42.10;;;;;;5031609;28;20222;-67
2020/12/26 03:56:18;;;;;;;10.67;8.70;;;4.60;42.70;;;;;;5031622;28;20314;-69
2020/12/26 03:58:44;;;;;;;9.60;8.43;;;4.80;42.70;;;;;;5031114;28;20639;-69
2020/12/26 04:01:10;;;;;;;10.83;7.80;;;4.80;42.20;;;;;;5031594;28;20616;-69
2020/12/26 04:03:36;;;;;;;9.60;8.07;;;4.60;42.70;;;;;;5031381;28;20922;-69
2020/12/26 04:06:01;;;;;;;12.40;9.40;;;4.40;42.90;;;;;;5031118;28;20467;-69
2020/12/26 04:08:27;;;;;;;9.47;7.90;;;4.80;42.30;;;;;;5031279;28;20269;-69
2020/12/26 04:10:53;;;;;;;16.10;8.37;;;4.80;42.20;;;;;;5031388;28;20759;-69
2020/12/26 04:13:18;;;;;;;11.90;8.00;;;5.30;41.60;;;;;;5031186;28;20196;-70
2020/12/26 04:15:43;;;;;;;13.17;8.10;;;5.20;40.30;;;;;;5031159;28;20185;-69
2020/12/26 04:18:09;;;;;;;9.50;7.80;;;5.30;39.80;;;;;;5031036;28;20184;-69
2020/12/26 04:20:34;;;;;;;7.60;6.80;;;5.50;39.50;;;;;;5030872;28;20664;-69
2020/12/26 04:23:00;;;;;;;9.43;7.30;;;5.40;38.80;;;;;;5030709;28;20258;-69
2020/12/26 04:25:25;;;;;;;11.07;7.37;;;5.30;38.70;;;;;;5031131;28;20256;-69
2020/12/26 04:27:51;;;;;;;9.10;6.50;;;5.40;39.40;;;;;;5030807;28;20656;-69
2020/12/26 04:30:17;;;;;;;9.70;6.87;;;5.50;38.90;;;;;;5030775;28;20166;-69
2020/12/26 04:32:43;;;;;;;9.60;6.60;;;5.60;38.00;;;;;;5030898;28;20184;-69
2020/12/26 04:35:08;;;;;;;10.70;7.00;;;5.10;39.20;;;;;;5030987;28;20231;-69
2020/12/26 04:37:34;;;;;;;7.07;6.33;;;4.90;39.40;;;;;;5030508;28;20299;-70
2020/12/26 04:39:59;;;;;;;10.30;7.57;;;4.50;40.60;;;;;;5030908;28;20414;-69
2020/12/26 04:42:25;;;;;;;8.87;6.70;;;4.50;41.40;;;;;;5030808;28;20180;-69
2020/12/26 04:44:52;;;;;;;9.13;6.57;;;4.50;41.30;;;;;;5030588;28;20217;-69
2020/12/26 04:47:28;;;;;;;9.63;7.00;;;4.50;41.50;;;;;;5030483;28;20212;-69
2020/12/26 04:49:59;;;;;;;10.13;7.83;;;4.40;41.70;;;;;;5030781;28;20414;-69
2020/12/26 04:52:28;;;;;;;8.60;7.10;;;4.90;41.50;;;;;;5030589;28;20411;-67
2020/12/26 04:54:54;;;;;;;11.80;8.30;;;4.90;40.50;;;;;;5030584;28;20797;-71
2020/12/26 04:57:21;;;;;;;13.90;8.47;;;5.00;40.80;;;;;;5030808;28;20493;-69
2020/12/26 04:59:47;;;;;;;10.57;7.60;;;4.80;41.50;;;;;;5030667;28;20477;-69
2020/12/26 05:02:14;;;;;;;9.23;7.07;;;4.70;42.00;;;;;;5030792;28;20415;-69
2020/12/26 05:04:43;;;;;;;9.33;7.17;;;4.80;41.10;;;;;;5030685;28;20459;-68
2020/12/26 05:07:11;;;;;;;7.73;6.90;;;5.00;40.90;;;;;;5030123;28;20799;-69
2020/12/26 05:09:36;;;;;;;10.97;8.73;;;5.40;39.60;;;;;;5030647;28;20854;-70
2020/12/26 05:12:02;;;;;;;9.17;7.33;;;5.40;39.50;;;;;;5030596;28;20404;-70
2020/12/26 05:14:30;;;;;;;9.47;8.37;;;5.40;39.10;;;;;;5030387;28;20988;-70
2020/12/26 05:16:56;;;;;;;9.87;8.50;;;5.50;39.60;;;;;;5029221;28;20183;-69
2020/12/26 05:19:22;;;;;;;12.37;8.90;;;5.40;38.80;;;;;;5030267;28;20418;-69
2020/12/26 05:21:51;;;;;;;10.90;9.60;;;5.70;39.00;;;;;;5030036;28;20492;-66
2020/12/26 05:24:18;;;;;;;9.93;9.03;;;5.40;38.80;;;;;;5030451;28;20504;-70
2020/12/26 05:26:49;;;;;;;12.07;9.37;;;5.30;39.10;;;;;;5030284;28;20451;-70
2020/12/26 05:29:16;;;;;;;13.23;9.03;;;5.80;39.20;;;;;;5030069;28;20401;-69
2020/12/26 05:31:47;;;;;;;10.77;8.80;;;5.60;38.80;;;;;;5030766;28;20403;-67
2020/12/26 05:34:13;;;;;;;12.17;9.40;;;5.80;39.10;;;;;;5034135;28;20483;-67
2020/12/26 05:36:39;;;;;;;12.27;8.20;;;5.90;38.20;;;;;;5034058;28;20610;-67
2020/12/26 05:39:05;;;;;;;12.13;9.60;;;5.60;39.30;;;;;;5034109;28;21094;-69
2020/12/26 05:41:31;;;;;;;10.23;9.10;;;5.40;39.00;;;;;;5034107;28;20765;-69
2020/12/26 05:43:57;;;;;;;10.93;9.60;;;5.30;40.70;;;;;;5033940;28;20883;-69
2020/12/26 05:46:23;;;;;;;15.20;9.53;;;5.40;40.30;;;;;;5034032;28;20480;-66
2020/12/26 05:48:49;;;;;;;11.30;9.50;;;5.40;40.50;;;;;;5033777;28;20253;-66
2020/12/26 05:51:25;;;;;;;16.40;9.80;;;5.50;40.30;;;;;;5033805;28;20538;-69
2020/12/26 05:53:55;;;;;;;12.23;9.13;;;5.50;40.20;;;;;;5033825;28;20648;-69
2020/12/26 05:56:21;;;;;;;10.60;9.23;;;5.10;41.00;;;;;;5033842;28;20402;-69
2020/12/26 05:58:47;;;;;;;11.33;9.23;;;5.40;41.60;;;;;;5033617;28;20417;-69
2020/12/26 06:01:20;;;;;;;12.20;9.67;;;5.30;40.70;;;;;;5033845;28;20537;-69
2020/12/26 06:03:47;;;;;;;11.17;8.87;;;5.30;40.90;;;;;;5033688;28;20523;-69
2020/12/26 06:06:15;;;;;;;10.17;8.27;;;5.50;40.00;;;;;;5033412;28;20468;-68
2020/12/26 06:08:40;;;;;;;11.20;9.00;;;5.30;40.00;;;;;;5033578;28;20419;-68
2020/12/26 06:11:07;;;;;;;13.20;9.00;;;5.10;40.90;;;;;;5033620;28;20449;-68
2020/12/26 06:13:35;;;;;;;11.23;8.57;;;5.40;40.90;;;;;;5033342;28;20185;-69
2020/12/26 06:16:13;;;;;;;10.10;7.90;;;5.50;40.30;;;;;;5033320;28;20445;-69
2020/12/26 06:18:41;;;;;;;12.30;8.20;;;5.50;40.20;;;;;;5033186;28;21146;-68
2020/12/26 06:21:08;;;;;;;11.37;9.67;;;4.90;40.50;;;;;;5033174;28;20411;-69
2020/12/26 06:23:37;;;;;;;14.30;9.60;;;4.80;41.70;;;;;;5033259;28;20486;-68
2020/12/26 06:26:03;;;;;;;11.43;9.80;;;4.80;41.90;;;;;;5033414;28;20481;-68
2020/12/26 06:28:34;;;;;;;10.83;9.60;;;5.00;41.60;;;;;;5032841;28;20827;-69
2020/12/26 06:31:07;;;;;;;12.33;9.33;;;5.30;40.90;;;;;;5033251;28;20426;-66
2020/12/26 06:33:43;;;;;;;12.07;9.87;;;5.30;40.50;;;;;;5033229;28;20478;-68
2020/12/26 06:36:10;;;;;;;10.73;9.07;;;5.30;40.10;;;;;;5033060;28;20506;-68
2020/12/26 06:38:36;;;;;;;10.23;8.50;;;5.30;40.80;;;;;;5033039;28;20412;-69
2020/12/26 06:41:15;;;;;;;12.23;9.33;;;5.20;40.20;;;;;;5033076;28;20450;-68
2020/12/26 06:43:44;;;;;;;12.17;9.63;;;4.70;41.70;;;;;;5032609;28;20458;-68
2020/12/26 06:46:22;;;;;;;12.60;9.93;;;4.70;41.80;;;;;;5032859;28;20407;-68
2020/12/26 06:48:53;;;;;;;10.47;9.37;;;4.60;42.20;;;;;;5032685;28;20434;-68
2020/12/26 06:51:22;;;;;;;11.57;9.80;;;4.70;41.50;;;;;;5032929;28;20415;-68
2020/12/26 06:53:47;;;;;;;16.53;9.27;;;4.40;43.10;;;;;;5032843;28;20488;-69
2020/12/26 06:56:31;;;;;;;11.20;8.37;;;4.60;42.40;;;;;;5032719;28;20415;-68
2020/12/26 06:58:57;;;;;;;14.77;9.73;;;5.00;41.70;;;;;;5032635;28;20173;-69
2020/12/26 07:01:23;;;;;;;11.00;9.17;;;5.20;41.20;;;;;;5032833;28;20426;-69
2020/12/26 07:04:09;;;;;;;10.33;8.63;;;5.40;40.80;;;;;;5032346;28;20203;-69
2020/12/26 07:06:55;;;;;;;16.23;9.90;;;5.10;40.50;;;;;;5032506;28;20283;-68
2020/12/26 07:09:44;;;;;;;16.47;10.53;;;5.20;40.50;;;;;;5032477;28;20414;-68
2020/12/26 07:12:12;;;;;;;14.50;9.33;;;5.40;39.70;;;;;;5032280;28;20411;-68
2020/12/26 07:14:43;;;;;;;10.17;8.73;;;5.70;39.00;;;;;;5032302;28;20458;-69
2020/12/26 07:17:14;;;;;;;12.13;10.67;;;5.60;39.00;;;;;;5032279;28;20412;-68
2020/12/26 07:19:46;;;;;;;12.10;8.80;;;5.10;39.40;;;;;;5032123;28;20438;-68
2020/12/26 07:22:13;;;;;;;11.40;9.57;;;5.00;40.80;;;;;;5032208;28;20510;-69
2020/12/26 07:24:41;;;;;;;12.70;9.23;;;4.80;40.60;;;;;;5032215;28;20431;-68
2020/12/26 07:27:29;;;;;;;10.40;8.90;;;5.20;40.40;;;;;;5031757;28;20470;-69
2020/12/26 07:30:12;;;;;;;11.50;10.00;;;5.30;39.80;;;;;;5032198;28;20412;-69
2020/12/26 07:32:39;;;;;;;10.13;8.00;;;5.50;38.90;;;;;;5032185;28;20460;-68
2020/12/26 07:35:17;;;;;;;12.73;8.50;;;5.50;38.00;;;;;;5031644;28;20431;-68
2020/12/26 07:37:54;;;;;;;11.07;8.60;;;5.30;38.80;;;;;;5031894;28;20415;-68
2020/12/26 07:40:42;;;;;;;11.50;7.80;;;5.30;37.90;;;;;;5032018;28;20409;-68
2020/12/26 07:43:10;;;;;;;9.33;8.33;;;5.10;38.50;;;;;;5031806;28;20423;-68
2020/12/26 07:45:38;;;;;;;10.23;8.17;;;5.00;38.50;;;;;;5031776;28;20925;-68
2020/12/26 07:48:05;;;;;;;9.03;8.17;;;5.00;38.50;;;;;;5031369;28;20477;-68
2020/12/26 07:50:33;;;;;;;12.20;8.63;;;4.60;40.30;;;;;;5031754;28;20486;-68
2020/12/26 07:53:01;;;;;;;12.00;8.80;;;4.70;40.00;;;;;;5031706;28;20462;-68
2020/12/26 07:55:27;;;;;;;11.37;8.73;;;4.60;40.60;;;;;;5030834;28;20899;-68
2020/12/26 07:58:05;;;;;;;15.20;10.03;;;4.60;40.30;;;;;;5034561;28;20458;-67
2020/12/26 08:00:36;;;;;;;10.50;9.13;;;4.80;40.00;;;;;;5050087;28;20816;-68
2020/12/26 08:03:04;;;;;;;13.13;9.20;;;4.90;39.70;;;;;;5051199;28;20454;-68
2020/12/26 08:05:32;;;;;;;9.40;8.13;;;4.80;39.90;;;;;;5051553;28;20411;-68
2020/12/26 08:07:58;;;;;;;9.93;8.90;;;4.50;40.90;;;;;;5051158;28;20450;-68
2020/12/26 08:10:25;;;;;;;8.83;7.97;;;4.70;39.70;;;;;;5051172;28;20407;-69
2020/12/26 08:12:58;;;;;;;11.30;8.23;;;4.60;40.40;;;;;;5051117;28;20894;-69
2020/12/26 08:15:26;;;;;;;11.47;8.13;;;4.50;41.10;;;;;;5051443;28;20406;-68
2020/12/26 08:17:54;;;;;;;11.50;8.37;;;4.70;40.30;;;;;;5050780;28;20410;-68
2020/12/26 08:20:21;;;;;;;10.73;8.40;;;4.90;40.10;;;;;;5051229;28;20410;-68
2020/12/26 08:22:47;;;;;;;9.27;8.37;;;4.50;40.00;;;;;;5050938;28;20442;-68
2020/12/26 08:25:14;;;;;;;11.03;8.33;;;4.30;41.10;;;;;;5050717;28;20437;-68
2020/12/26 08:27:40;;;;;;;12.53;9.33;;;4.30;41.60;;;;;;5050820;28;20192;-68
2020/12/26 08:30:10;;;;;;;11.10;9.60;;;4.40;41.50;;;;;;5050584;28;20536;-68
2020/12/26 08:33:05;;;;;;;9.87;8.23;;;4.50;40.80;;;;;;5050538;28;20761;-67
2020/12/26 08:35:32;;;;;;;9.50;7.97;;;4.60;40.20;;;;;;5050724;28;20407;-66
2020/12/26 08:38:14;;;;;;;9.70;8.10;;;4.70;39.80;;;;;;5050960;28;20895;-67
2020/12/26 08:40:42;;;;;;;9.90;8.00;;;4.40;40.50;;;;;;5050606;28;20814;-67
2020/12/26 08:43:14;;;;;;;9.43;8.53;;;4.40;40.50;;;;;;5050711;28;20932;-68
2020/12/26 08:45:40;;;;;;;9.37;7.57;;;4.50;40.40;;;;;;5050713;28;20909;-68
2020/12/26 08:48:14;;;;;;;8.47;7.60;;;4.70;40.80;;;;;;5049979;28;20450;-68
2020/12/26 08:50:40;;;;;;;10.00;8.60;;;5.00;40.10;;;;;;5049627;28;20404;-68
2020/12/26 08:53:10;;;;;;;10.27;9.27;;;4.70;40.30;;;;;;5050472;28;20203;-68
2020/12/26 08:55:48;;;;;;;11.43;10.13;;;4.60;40.20;;;;;;5050686;28;20245;-68
2020/12/26 08:58:27;;;;;;;8.77;7.50;;;4.60;40.10;;;;;;5050205;28;20489;-68
2020/12/26 09:01:03;;;;;;;10.53;8.53;;;4.70;40.60;;;;;;5050419;28;20434;-68
2020/12/26 09:03:33;;;;;;;10.57;8.17;;;4.80;40.20;;;;;;5050148;28;20426;-69
2020/12/26 09:06:01;;;;;;;10.80;8.63;;;5.20;39.60;;;;;;5049786;28;20402;-68
2020/12/26 09:08:32;;;;;;;8.00;7.20;;;5.10;38.50;;;;;;5049848;28;20457;-68
2020/12/26 09:11:06;;;;;;;11.17;8.27;;;4.90;39.70;;;;;;5050018;28;20473;-68
2020/12/26 09:13:36;;;;;;;10.67;8.67;;;4.80;40.30;;;;;;5050355;28;20417;-69
2020/12/26 09:16:03;;;;;;;10.23;6.73;;;4.90;40.30;;;;;;5050347;28;20406;-70
2020/12/26 09:18:35;;;;;;;10.00;7.67;;;5.40;74.90;;;;;;5050529;28;20935;-71
2020/12/26 09:21:00;;;;;;;9.80;8.00;;;6.70;48.80;;;;;;5050228;28;20398;-71
2020/12/26 09:23:46;;;;;;;7.07;6.00;;;6.40;41.70;;;;;;5049917;28;20888;-71
2020/12/26 09:26:14;;;;;;;8.10;7.30;;;7.60;53.80;;;;;;5050190;28;20194;-70
2020/12/26 09:28:45;;;;;;;10.00;6.60;;;6.90;38.20;;;;;;5050400;28;20413;-70
2020/12/26 09:31:12;;;;;;;11.13;7.60;;;6.90;40.70;;;;;;5050387;28;20414;-72
2020/12/26 09:33:38;;;;;;;7.07;6.37;;;7.10;40.20;;;;;;5035603;28;20817;-72
2020/12/26 09:36:05;;;;;;;8.07;7.27;;;7.00;38.00;;;;;;5030316;28;20443;-72
2020/12/26 09:38:30;;;;;;;10.40;7.30;;;7.20;36.00;;;;;;5030156;28;20988;-70
2020/12/26 09:40:56;;;;;;;7.83;6.27;;;7.70;40.80;;;;;;5029990;28;20414;-71
2020/12/26 09:43:23;;;;;;;6.53;5.77;;;8.30;37.50;;;;;;5029989;28;20533;-71
2020/12/26 09:45:48;;;;;;;9.30;6.53;;;8.20;41.20;;;;;;5030405;28;20187;-68
2020/12/26 09:48:14;;;;;;;7.30;6.67;;;7.60;33.10;;;;;;5029497;28;20455;-68
2020/12/26 09:50:39;;;;;;;7.37;6.67;;;6.60;34.10;;;;;;5029803;28;20170;-69
2020/12/26 09:53:05;;;;;;;7.63;5.90;;;6.60;35.70;;;;;;5039737;28;20204;-67
2020/12/26 09:55:31;;;;;;;6.17;5.50;;;6.40;35.70;;;;;;5045789;28;20210;-69
2020/12/26 09:57:56;;;;;;;7.00;6.40;;;5.90;35.80;;;;;;5047568;28;20263;-68
2020/12/26 10:00:22;;;;;;;6.47;5.73;;;6.10;36.00;;;;;;5037292;28;20585;-68
2020/12/26 10:02:48;;;;;;;11.23;7.50;;;6.10;36.30;;;;;;5039714;28;20599;-66
2020/12/26 10:05:18;;;;;;;9.43;6.00;;;5.80;36.50;;;;;;5038048;28;20721;-68
2020/12/26 10:07:44;;;;;;;7.87;6.13;;;6.00;36.80;;;;;;5038020;28;20196;-68
2020/12/26 10:10:10;;;;;;;6.90;5.70;;;6.20;35.80;;;;;;5039661;28;20482;-67
2020/12/26 10:12:36;;;;;;;7.33;6.57;;;6.10;36.10;;;;;;5038389;28;20585;-67
2020/12/26 10:15:03;;;;;;;6.40;5.80;;;6.30;36.80;;;;;;5038637;28;20440;-67
2020/12/26 10:17:28;;;;;;;9.07;5.97;;;6.50;36.00;;;;;;5039773;28;20411;-66
2020/12/26 10:19:54;;;;;;;6.10;5.60;;;6.50;35.10;;;;;;5041802;28;20433;-67
2020/12/26 10:22:19;;;;;;;7.00;6.40;;;6.50;34.80;;;;;;5042512;28;20223;-67
2020/12/26 10:24:45;;;;;;;8.20;6.70;;;6.60;34.40;;;;;;5042965;28;20249;-66
2020/12/26 10:27:10;;;;;;;7.10;5.60;;;6.50;35.40;;;;;;5040719;28;20550;-68
2020/12/26 10:29:36;;;;;;;5.70;5.20;;;6.80;35.10;;;;;;5033202;28;20167;-67
2020/12/26 10:32:04;;;;;;;6.50;5.80;;;7.00;34.00;;;;;;5033048;28;20180;-66
2020/12/26 10:34:29;;;;;;;6.30;5.80;;;7.10;34.00;;;;;;5033276;28;20199;-67
2020/12/26 10:36:55;;;;;;;7.07;5.97;;;7.10;34.20;;;;;;5033309;28;20848;-67
2020/12/26 10:39:20;;;;;;;6.03;5.53;;;7.00;34.40;;;;;;5032617;28;20179;-67
2020/12/26 10:41:46;;;;;;;6.70;6.10;;;7.00;34.20;;;;;;5032993;28;20179;-67
2020/12/26 10:44:12;;;;;;;5.70;5.20;;;7.00;34.50;;;;;;5032881;28;20200;-67
2020/12/26 10:46:39;;;;;;;7.43;6.03;;;7.00;33.60;;;;;;5032661;28;20196;-66
2020/12/26 10:49:04;;;;;;;6.43;5.83;;;6.90;34.40;;;;;;5032636;28;20828;-67
2020/12/26 10:51:30;;;;;;;12.93;5.83;;;6.80;34.80;;;;;;5032905;28;20416;-67
2020/12/26 10:53:55;;;;;;;6.47;5.80;;;6.50;34.80;;;;;;5032600;28;20191;-67
2020/12/26 10:56:21;;;;;;;6.43;5.60;;;6.60;35.60;;;;;;5032909;28;20251;-66
2020/12/26 10:58:46;;;;;;;7.03;6.03;;;6.70;34.10;;;;;;5032696;28;20172;-67
2020/12/26 11:01:12;;;;;;;10.90;5.90;;;6.40;35.10;;;;;;5032472;28;20168;-66
2020/12/26 11:03:37;;;;;;;6.40;5.83;;;6.50;35.70;;;;;;5032453;28;20270;-66
2020/12/26 11:06:03;;;;;;;5.97;5.33;;;6.50;34.80;;;;;;5032629;28;20180;-66
2020/12/26 11:08:28;;;;;;;6.13;5.50;;;6.90;34.60;;;;;;5032060;28;20204;-67
2020/12/26 11:10:54;;;;;;;8.20;6.13;;;6.90;34.00;;;;;;5032548;28;20789;-68
2020/12/26 11:13:19;;;;;;;6.73;5.23;;;6.60;33.70;;;;;;5032426;28;20620;-69
2020/12/26 11:15:45;;;;;;;6.50;5.37;;;6.30;34.80;;;;;;5032068;28;20205;-69
2020/12/26 11:18:10;;;;;;;6.37;5.77;;;6.70;34.10;;;;;;5032091;28;20172;-67
2020/12/26 11:20:36;;;;;;;9.30;5.03;;;6.70;33.30;;;;;;5032394;28;20242;-64
2020/12/26 11:23:01;;;;;;;7.17;5.63;;;6.50;33.10;;;;;;5031761;28;20219;-66
2020/12/26 11:25:29;;;;;;;5.10;4.70;;;6.70;32.90;;;;;;5031544;28;20190;-66
2020/12/26 11:27:55;;;;;;;5.17;3.83;;;7.00;31.60;;;;;;5030422;28;20197;-68
2020/12/26 11:30:20;;;;;;;5.70;5.13;;;6.90;31.30;;;;;;5030810;28;20467;-67
2020/12/26 11:32:46;;;;;;;4.67;4.20;;;7.00;32.20;;;;;;5032036;28;20176;-67
2020/12/26 11:35:11;;;;;;;7.37;6.77;;;7.10;31.70;;;;;;5032273;28;20256;-67
2020/12/26 11:37:37;;;;;;;5.10;4.70;;;7.30;31.90;;;;;;5031835;28;20216;-66
2020/12/26 11:40:03;;;;;;;4.70;4.30;;;7.40;30.30;;;;;;5032234;28;20632;-66
2020/12/26 11:42:28;;;;;;;7.53;4.50;;;7.40;30.30;;;;;;5032141;28;20222;-66
2020/12/26 11:44:54;;;;;;;6.53;5.93;;;7.40;30.30;;;;;;5031650;28;20427;-66
2020/12/26 11:47:19;;;;;;;5.53;5.03;;;7.50;30.40;;;;;;5031487;28;20196;-67
2020/12/26 11:49:45;;;;;;;5.67;5.10;;;7.50;30.30;;;;;;5031852;28;20191;-67
2020/12/26 11:52:11;;;;;;;5.40;4.90;;;7.30;30.20;;;;;;5031713;28;20195;-67
2020/12/26 11:54:36;;;;;;;4.83;4.43;;;7.20;30.20;;;;;;5031636;28;20193;-66
2020/12/26 11:57:01;;;;;;;6.43;5.23;;;7.10;30.70;;;;;;5031700;28;20180;-67
2020/12/26 11:59:27;;;;;;;6.70;6.03;;;6.60;32.20;;;;;;5031483;28;20176;-66
2020/12/26 12:01:54;;;;;;;8.00;5.57;;;6.60;33.00;;;;;;5036654;28;20694;-67
2020/12/26 12:04:19;;;;;;;5.97;5.00;;;6.50;33.90;;;;;;5041620;28;20191;-67
2020/12/26 12:06:46;;;;;;;7.40;5.77;;;6.70;33.00;;;;;;5041148;28;20458;-67
2020/12/26 12:09:12;;;;;;;6.80;5.50;;;6.70;33.00;;;;;;5039689;28;20183;-66
2020/12/26 12:11:37;;;;;;;7.40;5.50;;;6.30;34.00;;;;;;5042785;28;20484;-66
2020/12/26 12:14:03;;;;;;;5.93;5.43;;;6.80;34.10;;;;;;5051164;28;20194;-67
2020/12/26 12:16:29;;;;;;;6.20;5.70;;;7.10;33.00;;;;;;5050945;28;20181;-66
2020/12/26 12:18:55;;;;;;;7.33;6.63;;;7.10;32.60;;;;;;5050876;28;20223;-66
2020/12/26 12:21:20;;;;;;;8.33;5.87;;;7.00;32.40;;;;;;5051076;28;20496;-67
2020/12/26 12:23:46;;;;;;;7.70;5.67;;;7.00;31.70;;;;;;5050854;28;20207;-66
2020/12/26 12:26:22;;;;;;;6.90;5.70;;;7.00;33.80;;;;;;5050954;28;20171;-66
2020/12/26 12:28:48;;;;;;;6.27;5.53;;;7.20;32.70;;;;;;5050799;28;20645;-66
2020/12/26 12:31:14;;;;;;;6.23;5.63;;;7.20;31.90;;;;;;5050949;28;20464;-67
2020/12/26 12:33:39;;;;;;;9.30;5.90;;;7.20;31.20;;;;;;5050775;28;20807;-66
2020/12/26 12:36:05;;;;;;;8.50;5.40;;;7.30;30.20;;;;;;5039237;28;20603;-66
2020/12/26 12:38:31;;;;;;;7.90;4.67;;;7.30;29.80;;;;;;5030508;28;20204;-67
2020/12/26 12:40:56;;;;;;;7.37;6.63;;;7.10;29.60;;;;;;5030786;28;20184;-66
2020/12/26 12:43:22;;;;;;;6.10;5.30;;;7.20;30.10;;;;;;5031508;28;20581;-66
2020/12/26 12:45:47;;;;;;;6.50;5.30;;;7.30;30.20;;;;;;5030549;28;20239;-66
2020/12/26 12:48:13;;;;;;;5.90;5.30;;;7.30;30.00;;;;;;5030590;28;20214;-67
2020/12/26 12:50:38;;;;;;;5.67;5.17;;;7.10;30.20;;;;;;5030894;28;20245;-66
2020/12/26 12:53:04;;;;;;;8.17;6.40;;;7.10;30.10;;;;;;5030336;28;20202;-67
2020/12/26 12:55:29;;;;;;;8.17;5.47;;;7.10;31.40;;;;;;5030737;28;20183;-67